Mayfield, Ohio
Current Conditions -  °F | °C
As of 5:45 PM on Tuesday 21 Oct 2014 (Local Time) from KCGF Reporting Station
Light Rain Light Rain  
Wind Chill: 50°   Ceiling: 800
Heat Index: 50°   Visibility: 6mi
Dew Point: 48°   Wind: 16mph
Humidity: 94%   Direction: 360°N
Pressure: 30.01"   Gusts: 23mph
Location:  41.5003°N, 81.466°W
Report Text: KCGF 212145Z 36014G20KT 6SM -RA BR BKN008 OVC010 10/09 A3001
Loading
Personal Weather Stations






























Interactive Weather Map
Tropical Storm Tracking
New forecast layout! Learn more

10-Day Weather Forecast

Advertisements
Track Severe Weather on mobile